sensor_id;sensor_type;location;lat;lon;timestamp;pressure;altitude;pressure_sealevel;temperature;humidity
15880;BME280;61999;51.514;14.614;2023-12-14T00:01:15;98836.44;;;3.61;100.00
15880;BME280;61999;51.514;14.614;2023-12-14T00:03:43;98831.22;;;3.61;100.00
15880;BME280;61999;51.514;14.614;2023-12-14T00:06:14;98838.97;;;3.62;100.00
15880;BME280;61999;51.514;14.614;2023-12-14T00:08:42;98844.38;;;3.59;100.00
15880;BME280;61999;51.514;14.614;2023-12-14T00:11:11;98846.03;;;3.60;100.00
15880;BME280;61999;51.514;14.614;2023-12-14T00:13:39;98847.00;;;3.59;100.00
15880;BME280;61999;51.514;14.614;2023-12-14T00:16:08;98850.22;;;3.63;100.00
15880;BME280;61999;51.514;14.614;2023-12-14T00:18:36;98852.91;;;3.61;100.00
15880;BME280;61999;51.514;14.614;2023-12-14T00:21:05;98858.13;;;3.61;100.00
15880;BME280;61999;51.514;14.614;2023-12-14T00:23:35;98853.84;;;3.60;100.00
15880;BME280;61999;51.514;14.614;2023-12-14T00:26:03;98853.94;;;3.59;100.00
15880;BME280;61999;51.514;14.614;2023-12-14T00:28:31;98864.28;;;3.60;100.00
15880;BME280;61999;51.514;14.614;2023-12-14T00:30:59;98860.22;;;3.56;100.00
15880;BME280;61999;51.514;14.614;2023-12-14T00:33:28;98862.81;;;3.56;100.00
15880;BME280;61999;51.514;14.614;2023-12-14T00:35:56;98871.28;;;3.60;100.00
15880;BME280;61999;51.514;14.614;2023-12-14T00:38:24;98872.75;;;3.51;100.00
15880;BME280;61999;51.514;14.614;2023-12-14T00:40:54;98877.53;;;3.44;100.00
15880;BME280;61999;51.514;14.614;2023-12-14T00:43:22;98879.63;;;3.52;100.00
15880;BME280;61999;51.514;14.614;2023-12-14T00:45:50;98886.59;;;3.39;100.00
15880;BME280;61999;51.514;14.614;2023-12-14T00:48:19;98895.06;;;3.42;100.00
15880;BME280;61999;51.514;14.614;2023-12-14T00:50:47;98893.38;;;3.41;100.00
15880;BME280;61999;51.514;14.614;2023-12-14T00:53:15;98886.09;;;3.46;100.00
15880;BME280;61999;51.514;14.614;2023-12-14T00:55:43;98899.72;;;3.50;100.00
15880;BME280;61999;51.514;14.614;2023-12-14T00:58:14;98894.28;;;3.53;100.00
15880;BME280;61999;51.514;14.614;2023-12-14T01:00:42;98912.53;;;3.53;100.00
15880;BME280;61999;51.514;14.614;2023-12-14T01:03:10;98904.84;;;3.51;100.00
15880;BME280;61999;51.514;14.614;2023-12-14T01:05:38;98915.47;;;3.48;100.00
15880;BME280;61999;51.514;14.614;2023-12-14T01:08:06;98920.47;;;3.51;100.00
15880;BME280;61999;51.514;14.614;2023-12-14T01:10:35;98914.31;;;3.52;100.00
15880;BME280;61999;51.514;14.614;2023-12-14T01:13:03;98917.03;;;3.51;100.00
15880;BME280;61999;51.514;14.614;2023-12-14T01:15:33;98929.13;;;3.52;100.00
15880;BME280;61999;51.514;14.614;2023-12-14T01:18:01;98931.94;;;3.49;100.00
15880;BME280;61999;51.514;14.614;2023-12-14T01:20:29;98930.06;;;3.38;100.00
15880;BME280;61999;51.514;14.614;2023-12-14T01:22:57;98933.00;;;3.34;100.00
15880;BME280;61999;51.514;14.614;2023-12-14T01:25:25;98935.25;;;3.38;100.00
15880;BME280;61999;51.514;14.614;2023-12-14T01:27:53;98933.69;;;3.36;100.00
15880;BME280;61999;51.514;14.614;2023-12-14T01:30:21;98942.88;;;3.28;100.00
15880;BME280;61999;51.514;14.614;2023-12-14T01:32:50;98948.09;;;3.28;100.00
15880;BME280;61999;51.514;14.614;2023-12-14T01:35:18;98943.78;;;3.27;100.00
15880;BME280;61999;51.514;14.614;2023-12-14T01:37:46;98951.44;;;3.31;100.00
15880;BME280;61999;51.514;14.614;2023-12-14T01:40:18;98945.06;;;3.35;100.00
15880;BME280;61999;51.514;14.614;2023-12-14T01:42:47;98939.84;;;3.35;100.00
15880;BME280;61999;51.514;14.614;2023-12-14T01:45:15;98938.00;;;3.37;100.00
15880;BME280;61999;51.514;14.614;2023-12-14T01:47:43;98942.47;;;3.35;100.00
15880;BME280;61999;51.514;14.614;2023-12-14T01:50:13;98941.41;;;3.37;100.00
15880;BME280;61999;51.514;14.614;2023-12-14T01:52:41;98941.50;;;3.36;100.00
15880;BME280;61999;51.514;14.614;2023-12-14T01:55:09;98944.84;;;3.38;100.00
15880;BME280;61999;51.514;14.614;2023-12-14T01:57:37;98951.72;;;3.39;100.00
15880;BME280;61999;51.514;14.614;2023-12-14T02:00:07;98954.31;;;3.39;100.00
15880;BME280;61999;51.514;14.614;2023-12-14T02:02:41;98959.75;;;3.36;100.00
15880;BME280;61999;51.514;14.614;2023-12-14T02:05:09;98965.06;;;3.34;100.00
15880;BME280;61999;51.514;14.614;2023-12-14T02:07:38;98956.44;;;3.34;100.00
15880;BME280;61999;51.514;14.614;2023-12-14T02:10:08;98966.31;;;3.28;100.00
15880;BME280;61999;51.514;14.614;2023-12-14T02:12:36;98968.78;;;3.17;100.00
15880;BME280;61999;51.514;14.614;2023-12-14T02:15:06;98968.84;;;3.03;100.00
15880;BME280;61999;51.514;14.614;2023-12-14T02:17:34;98971.66;;;3.13;100.00
15880;BME280;61999;51.514;14.614;2023-12-14T02:20:02;98975.22;;;3.24;100.00
15880;BME280;61999;51.514;14.614;2023-12-14T02:22:47;98973.38;;;3.26;100.00
15880;BME280;61999;51.514;14.614;2023-12-14T02:25:17;98973.97;;;3.17;100.00
15880;BME280;61999;51.514;14.614;2023-12-14T02:27:45;98976.66;;;3.16;100.00
15880;BME280;61999;51.514;14.614;2023-12-14T02:30:14;98978.31;;;3.04;100.00
15880;BME280;61999;51.514;14.614;2023-12-14T02:32:42;98970.78;;;2.87;100.00
15880;BME280;61999;51.514;14.614;2023-12-14T02:35:10;98980.91;;;3.04;100.00
15880;BME280;61999;51.514;14.614;2023-12-14T02:37:40;98973.34;;;3.14;100.00
15880;BME280;61999;51.514;14.614;2023-12-14T02:40:10;98977.31;;;3.19;100.00
15880;BME280;61999;51.514;14.614;2023-12-14T02:42:38;98981.66;;;3.19;100.00
15880;BME280;61999;51.514;14.614;2023-12-14T02:45:08;98986.66;;;3.09;100.00
15880;BME280;61999;51.514;14.614;2023-12-14T02:47:36;98987.56;;;2.95;100.00
15880;BME280;61999;51.514;14.614;2023-12-14T02:50:06;98992.06;;;3.06;100.00
15880;BME280;61999;51.514;14.614;2023-12-14T02:52:34;98990.22;;;3.08;100.00
15880;BME280;61999;51.514;14.614;2023-12-14T02:55:04;98996.38;;;2.80;100.00
15880;BME280;61999;51.514;14.614;2023-12-14T02:57:32;99000.34;;;2.85;100.00
15880;BME280;61999;51.514;14.614;2023-12-14T03:00:01;99001.97;;;2.74;100.00
15880;BME280;61999;51.514;14.614;2023-12-14T03:02:29;99002.59;;;2.77;100.00
15880;BME280;61999;51.514;14.614;2023-12-14T03:04:57;99006.81;;;2.93;100.00
15880;BME280;61999;51.514;14.614;2023-12-14T03:07:25;99005.94;;;2.79;100.00
15880;BME280;61999;51.514;14.614;2023-12-14T03:09:53;99004.81;;;2.83;100.00
15880;BME280;61999;51.514;14.614;2023-12-14T03:12:22;99004.94;;;2.95;100.00
15880;BME280;61999;51.514;14.614;2023-12-14T03:14:50;99005.69;;;2.97;100.00
15880;BME280;61999;51.514;14.614;2023-12-14T03:17:18;99014.97;;;3.01;100.00
15880;BME280;61999;51.514;14.614;2023-12-14T03:19:46;99019.81;;;2.93;100.00
15880;BME280;61999;51.514;14.614;2023-12-14T03:22:14;99020.56;;;2.95;100.00
15880;BME280;61999;51.514;14.614;2023-12-14T03:24:42;99028.28;;;2.96;100.00
15880;BME280;61999;51.514;14.614;2023-12-14T03:27:10;99024.22;;;2.65;100.00
15880;BME280;61999;51.514;14.614;2023-12-14T03:29:40;99024.66;;;2.72;100.00
15880;BME280;61999;51.514;14.614;2023-12-14T03:32:08;99018.44;;;2.87;100.00
15880;BME280;61999;51.514;14.614;2023-12-14T03:34:36;99025.97;;;2.92;100.00
15880;BME280;61999;51.514;14.614;2023-12-14T03:37:04;99029.31;;;2.94;100.00
15880;BME280;61999;51.514;14.614;2023-12-14T03:39:32;99036.19;;;2.95;100.00
15880;BME280;61999;51.514;14.614;2023-12-14T03:42:00;99039.28;;;2.87;100.00
15880;BME280;61999;51.514;14.614;2023-12-14T03:44:28;99033.56;;;2.82;100.00
15880;BME280;61999;51.514;14.614;2023-12-14T03:46:57;99041.28;;;2.69;100.00
15880;BME280;61999;51.514;14.614;2023-12-14T03:49:27;99042.66;;;2.48;100.00
15880;BME280;61999;51.514;14.614;2023-12-14T03:51:55;99046.72;;;2.52;100.00
15880;BME280;61999;51.514;14.614;2023-12-14T03:54:23;99054.81;;;2.33;100.00
15880;BME280;61999;51.514;14.614;2023-12-14T03:56:51;99056.16;;;2.53;100.00
15880;BME280;61999;51.514;14.614;2023-12-14T03:59:19;99066.97;;;2.18;100.00
15880;BME280;61999;51.514;14.614;2023-12-14T04:01:47;99067.53;;;2.09;100.00
15880;BME280;61999;51.514;14.614;2023-12-14T04:04:16;99081.09;;;2.00;100.00
15880;BME280;61999;51.514;14.614;2023-12-14T04:06:44;99079.41;;;1.99;100.00
15880;BME280;61999;51.514;14.614;2023-12-14T04:09:12;99077.69;;;1.83;100.00
15880;BME280;61999;51.514;14.614;2023-12-14T04:11:40;99082.75;;;1.86;100.00
15880;BME280;61999;51.514;14.614;2023-12-14T04:14:09;99089.34;;;1.92;100.00
15880;BME280;61999;51.514;14.614;2023-12-14T04:16:37;99093.91;;;2.03;100.00
15880;BME280;61999;51.514;14.614;2023-12-14T04:19:06;99097.34;;;2.17;100.00
15880;BME280;61999;51.514;14.614;2023-12-14T04:21:38;99103.56;;;2.15;100.00
15880;BME280;61999;51.514;14.614;2023-12-14T04:24:06;99107.00;;;2.30;100.00
15880;BME280;61999;51.514;14.614;2023-12-14T04:26:35;99106.53;;;1.79;100.00
15880;BME280;61999;51.514;14.614;2023-12-14T04:29:05;99108.00;;;2.13;100.00
15880;BME280;61999;51.514;14.614;2023-12-14T04:31:33;99115.91;;;1.97;100.00
15880;BME280;61999;51.514;14.614;2023-12-14T04:34:01;99114.69;;;2.03;100.00
15880;BME280;61999;51.514;14.614;2023-12-14T04:36:29;99112.91;;;1.89;100.00
15880;BME280;61999;51.514;14.614;2023-12-14T04:38:58;99116.72;;;1.98;100.00
15880;BME280;61999;51.514;14.614;2023-12-14T04:41:26;99123.31;;;1.73;100.00
15880;BME280;61999;51.514;14.614;2023-12-14T04:43:54;99111.34;;;2.01;100.00
15880;BME280;61999;51.514;14.614;2023-12-14T04:46:22;99119.13;;;1.86;100.00
15880;BME280;61999;51.514;14.614;2023-12-14T04:48:50;99132.50;;;1.94;100.00
15880;BME280;61999;51.514;14.614;2023-12-14T04:51:18;99130.94;;;2.06;100.00
15880;BME280;61999;51.514;14.614;2023-12-14T04:53:46;99131.41;;;2.13;100.00
15880;BME280;61999;51.514;14.614;2023-12-14T04:56:15;99137.94;;;2.20;100.00
15880;BME280;61999;51.514;14.614;2023-12-14T04:58:44;99147.56;;;2.04;100.00
15880;BME280;61999;51.514;14.614;2023-12-14T05:01:12;99145.72;;;2.06;100.00
15880;BME280;61999;51.514;14.614;2023-12-14T05:03:41;99148.41;;;2.18;100.00
15880;BME280;61999;51.514;14.614;2023-12-14T05:06:09;99154.00;;;2.27;100.00
15880;BME280;61999;51.514;14.614;2023-12-14T05:08:37;99155.50;;;2.31;100.00
15880;BME280;61999;51.514;14.614;2023-12-14T05:11:05;99162.00;;;2.38;100.00
15880;BME280;61999;51.514;14.614;2023-12-14T05:13:35;99162.00;;;2.38;100.00
15880;BME280;61999;51.514;14.614;2023-12-14T05:16:03;99167.28;;;2.22;100.00
15880;BME280;61999;51.514;14.614;2023-12-14T05:18:31;99175.75;;;1.95;100.00
15880;BME280;61999;51.514;14.614;2023-12-14T05:20:59;99178.22;;;2.13;100.00
15880;BME280;61999;51.514;14.614;2023-12-14T05:23:26;99182.81;;;1.93;100.00
15880;BME280;61999;51.514;14.614;2023-12-14T05:25:54;99184.47;;;1.79;100.00
15880;BME280;61999;51.514;14.614;2023-12-14T05:28:23;99192.69;;;2.03;100.00
15880;BME280;61999;51.514;14.614;2023-12-14T05:30:52;99195.75;;;2.09;100.00
15880;BME280;61999;51.514;14.614;2023-12-14T05:33:20;99197.59;;;1.77;100.00
15880;BME280;61999;51.514;14.614;2023-12-14T05:35:48;99201.94;;;1.77;100.00
15880;BME280;61999;51.514;14.614;2023-12-14T05:38:16;99209.66;;;1.94;100.00
15880;BME280;61999;51.514;14.614;2023-12-14T05:40:44;99208.56;;;1.82;100.00
15880;BME280;61999;51.514;14.614;2023-12-14T05:43:12;99209.34;;;1.53;100.00
15880;BME280;61999;51.514;14.614;2023-12-14T05:45:40;99217.69;;;1.89;100.00
15880;BME280;61999;51.514;14.614;2023-12-14T05:48:09;99223.53;;;2.09;100.00
15880;BME280;61999;51.514;14.614;2023-12-14T05:50:37;99218.50;;;2.06;100.00
15880;BME280;61999;51.514;14.614;2023-12-14T05:53:05;99225.25;;;1.94;100.00
15880;BME280;61999;51.514;14.614;2023-12-14T05:55:33;99231.69;;;2.03;100.00
15880;BME280;61999;51.514;14.614;2023-12-14T05:58:01;99236.13;;;2.01;100.00
15880;BME280;61999;51.514;14.614;2023-12-14T06:00:30;99237.00;;;1.85;100.00
15880;BME280;61999;51.514;14.614;2023-12-14T06:02:58;99242.44;;;1.97;100.00
15880;BME280;61999;51.514;14.614;2023-12-14T06:05:28;99244.25;;;1.79;100.00
15880;BME280;61999;51.514;14.614;2023-12-14T06:07:56;99249.66;;;1.91;100.00
15880;BME280;61999;51.514;14.614;2023-12-14T06:10:23;99251.13;;;1.95;100.00
15880;BME280;61999;51.514;14.614;2023-12-14T06:12:51;99259.34;;;2.04;100.00
15880;BME280;61999;51.514;14.614;2023-12-14T06:15:19;99263.09;;;2.14;100.00
15880;BME280;61999;51.514;14.614;2023-12-14T06:17:47;99263.75;;;2.17;100.00
15880;BME280;61999;51.514;14.614;2023-12-14T06:20:15;99265.66;;;2.00;100.00
15880;BME280;61999;51.514;14.614;2023-12-14T06:22:44;99267.28;;;2.16;100.00
15880;BME280;61999;51.514;14.614;2023-12-14T06:25:12;99278.31;;;1.74;100.00
15880;BME280;61999;51.514;14.614;2023-12-14T06:27:41;99285.34;;;1.72;100.00
15880;BME280;61999;51.514;14.614;2023-12-14T06:30:11;99285.44;;;1.86;100.00
15880;BME280;61999;51.514;14.614;2023-12-14T06:32:39;99288.63;;;1.91;100.00
15880;BME280;61999;51.514;14.614;2023-12-14T06:35:08;99300.00;;;1.73;100.00
15880;BME280;61999;51.514;14.614;2023-12-14T06:37:36;99294.97;;;1.70;100.00
15880;BME280;61999;51.514;14.614;2023-12-14T06:40:07;99301.91;;;1.22;100.00
15880;BME280;61999;51.514;14.614;2023-12-14T06:42:36;99311.06;;;1.61;100.00
15880;BME280;61999;51.514;14.614;2023-12-14T06:45:05;99312.59;;;1.65;100.00
15880;BME280;61999;51.514;14.614;2023-12-14T06:47:33;99314.25;;;1.66;100.00
15880;BME280;61999;51.514;14.614;2023-12-14T06:50:01;99322.75;;;1.85;100.00
15880;BME280;61999;51.514;14.614;2023-12-14T06:52:29;99332.88;;;1.74;100.00
15880;BME280;61999;51.514;14.614;2023-12-14T06:54:58;99326.97;;;1.55;100.00
15880;BME280;61999;51.514;14.614;2023-12-14T06:57:28;99328.25;;;1.63;100.00
15880;BME280;61999;51.514;14.614;2023-12-14T06:59:56;99328.00;;;1.68;100.00
15880;BME280;61999;51.514;14.614;2023-12-14T07:02:24;99339.50;;;1.95;100.00
15880;BME280;61999;51.514;14.614;2023-12-14T07:04:52;99336.25;;;2.08;100.00
15880;BME280;61999;51.514;14.614;2023-12-14T07:07:20;99342.88;;;2.13;100.00
15880;BME280;61999;51.514;14.614;2023-12-14T07:09:48;99346.47;;;2.11;100.00
15880;BME280;61999;51.514;14.614;2023-12-14T07:12:16;99356.53;;;2.17;100.00
15880;BME280;61999;51.514;14.614;2023-12-14T07:14:46;99356.59;;;2.15;100.00
15880;BME280;61999;51.514;14.614;2023-12-14T07:17:14;99356.72;;;2.14;100.00
15880;BME280;61999;51.514;14.614;2023-12-14T07:19:42;99361.06;;;2.13;100.00
15880;BME280;61999;51.514;14.614;2023-12-14T07:22:09;99368.34;;;2.07;100.00
15880;BME280;61999;51.514;14.614;2023-12-14T07:24:37;99373.91;;;2.16;100.00
15880;BME280;61999;51.514;14.614;2023-12-14T07:27:06;99374.66;;;2.03;100.00
15880;BME280;61999;51.514;14.614;2023-12-14T07:29:34;99379.00;;;2.18;100.00
15880;BME280;61999;51.514;14.614;2023-12-14T07:32:04;99387.31;;;2.25;100.00
15880;BME280;61999;51.514;14.614;2023-12-14T07:34:32;99393.19;;;2.28;100.00
15880;BME280;61999;51.514;14.614;2023-12-14T07:37:00;99398.97;;;2.33;100.00
15880;BME280;61999;51.514;14.614;2023-12-14T07:39:28;99401.47;;;2.35;100.00
15880;BME280;61999;51.514;14.614;2023-12-14T07:41:56;99406.69;;;2.35;100.00
15880;BME280;61999;51.514;14.614;2023-12-14T07:44:25;99414.72;;;2.30;100.00
15880;BME280;61999;51.514;14.614;2023-12-14T07:46:53;99418.25;;;2.29;100.00
15880;BME280;61999;51.514;14.614;2023-12-14T07:49:22;99426.16;;;2.12;100.00
15880;BME280;61999;51.514;14.614;2023-12-14T07:51:50;99429.34;;;2.17;100.00
15880;BME280;61999;51.514;14.614;2023-12-14T07:54:19;99437.97;;;1.84;100.00
15880;BME280;61999;51.514;14.614;2023-12-14T07:56:48;99429.50;;;2.14;100.00
15880;BME280;61999;51.514;14.614;2023-12-14T07:59:15;99440.56;;;2.17;100.00
15880;BME280;61999;51.514;14.614;2023-12-14T08:01:43;99443.41;;;2.13;100.00
15880;BME280;61999;51.514;14.614;2023-12-14T08:04:11;99450.16;;;2.17;100.00
15880;BME280;61999;51.514;14.614;2023-12-14T08:06:41;99461.28;;;2.03;100.00
15880;BME280;61999;51.514;14.614;2023-12-14T08:09:09;99467.38;;;1.86;100.00
15880;BME280;61999;51.514;14.614;2023-12-14T08:11:37;99472.50;;;2.04;100.00
15880;BME280;61999;51.514;14.614;2023-12-14T08:14:05;99475.72;;;2.09;100.00
15880;BME280;61999;51.514;14.614;2023-12-14T08:16:33;99474.31;;;2.19;100.00
15880;BME280;61999;51.514;14.614;2023-12-14T08:19:01;99476.31;;;2.14;100.00
15880;BME280;61999;51.514;14.614;2023-12-14T08:21:29;99488.03;;;2.05;100.00
15880;BME280;61999;51.514;14.614;2023-12-14T08:23:59;99485.00;;;2.13;100.00
15880;BME280;61999;51.514;14.614;2023-12-14T08:26:27;99494.41;;;2.15;100.00
15880;BME280;61999;51.514;14.614;2023-12-14T08:28:55;99494.41;;;2.00;100.00
15880;BME280;61999;51.514;14.614;2023-12-14T08:31:23;99500.22;;;2.05;100.00
15880;BME280;61999;51.514;14.614;2023-12-14T08:33:51;99510.50;;;1.90;100.00
15880;BME280;61999;51.514;14.614;2023-12-14T08:36:20;99503.72;;;2.04;100.00
15880;BME280;61999;51.514;14.614;2023-12-14T08:38:48;99516.44;;;1.92;100.00
15880;BME280;61999;51.514;14.614;2023-12-14T08:41:17;99514.44;;;1.98;100.00
15880;BME280;61999;51.514;14.614;2023-12-14T08:43:45;99522.16;;;1.99;100.00
15880;BME280;61999;51.514;14.614;2023-12-14T08:46:13;99521.22;;;2.00;100.00
15880;BME280;61999;51.514;14.614;2023-12-14T08:48:41;99534.13;;;2.02;100.00
15880;BME280;61999;51.514;14.614;2023-12-14T08:51:09;99534.69;;;2.08;100.00
15880;BME280;61999;51.514;14.614;2023-12-14T08:53:37;99540.66;;;2.10;100.00
15880;BME280;61999;51.514;14.614;2023-12-14T08:56:08;99544.16;;;2.09;100.00
15880;BME280;61999;51.514;14.614;2023-12-14T08:58:38;99551.75;;;1.97;100.00
15880;BME280;61999;51.514;14.614;2023-12-14T09:01:06;99565.34;;;1.32;100.00
15880;BME280;61999;51.514;14.614;2023-12-14T09:03:34;99565.03;;;1.73;100.00
15880;BME280;61999;51.514;14.614;2023-12-14T09:06:02;99572.16;;;1.69;100.00
15880;BME280;61999;51.514;14.614;2023-12-14T09:08:32;99572.16;;;1.69;100.00
15880;BME280;61999;51.514;14.614;2023-12-14T09:11:00;99580.50;;;1.76;100.00
15880;BME280;61999;51.514;14.614;2023-12-14T09:13:29;99581.56;;;1.89;100.00
15880;BME280;61999;51.514;14.614;2023-12-14T09:15:58;99589.53;;;1.86;100.00
15880;BME280;61999;51.514;14.614;2023-12-14T09:18:26;99601.13;;;1.79;100.00
15880;BME280;61999;51.514;14.614;2023-12-14T09:20:54;99608.47;;;1.71;100.00
15880;BME280;61999;51.514;14.614;2023-12-14T09:23:22;99606.56;;;1.92;100.00
15880;BME280;61999;51.514;14.614;2023-12-14T09:26:00;99613.50;;;1.57;100.00
15880;BME280;61999;51.514;14.614;2023-12-14T09:28:28;99613.47;;;1.39;100.00
15880;BME280;61999;51.514;14.614;2023-12-14T09:30:58;99614.78;;;1.12;100.00
15880;BME280;61999;51.514;14.614;2023-12-14T09:33:26;99624.16;;;1.33;100.00
15880;BME280;61999;51.514;14.614;2023-12-14T09:35:54;99621.44;;;1.54;100.00
15880;BME280;61999;51.514;14.614;2023-12-14T09:38:23;99620.69;;;1.69;100.00
15880;BME280;61999;51.514;14.614;2023-12-14T09:40:51;99627.84;;;1.81;100.00
15880;BME280;61999;51.514;14.614;2023-12-14T09:43:19;99633.72;;;1.86;100.00
15880;BME280;61999;51.514;14.614;2023-12-14T09:45:49;99641.28;;;1.91;100.00
15880;BME280;61999;51.514;14.614;2023-12-14T09:48:20;99636.00;;;1.92;100.00
15880;BME280;61999;51.514;14.614;2023-12-14T09:50:50;99642.44;;;1.85;100.00
15880;BME280;61999;51.514;14.614;2023-12-14T09:53:18;99650.53;;;1.97;100.00
15880;BME280;61999;51.514;14.614;2023-12-14T09:55:46;99652.22;;;1.98;100.00
15880;BME280;61999;51.514;14.614;2023-12-14T09:58:14;99653.31;;;1.75;100.00
15880;BME280;61999;51.514;14.614;2023-12-14T10:00:42;99653.09;;;1.79;100.00
15880;BME280;61999;51.514;14.614;2023-12-14T10:03:26;99653.28;;;1.93;100.00
15880;BME280;61999;51.514;14.614;2023-12-14T10:05:56;99647.69;;;2.01;100.00
15880;BME280;61999;51.514;14.614;2023-12-14T10:08:26;99645.88;;;2.03;100.00
15880;BME280;61999;51.514;14.614;2023-12-14T10:10:55;99652.69;;;1.88;100.00
15880;BME280;61999;51.514;14.614;2023-12-14T10:13:36;99648.09;;;1.93;100.00
15880;BME280;61999;51.514;14.614;2023-12-14T10:16:05;99653.72;;;2.02;100.00
15880;BME280;61999;51.514;14.614;2023-12-14T10:18:35;99654.13;;;2.11;100.00
15880;BME280;61999;51.514;14.614;2023-12-14T10:21:06;99660.47;;;2.06;100.00
15880;BME280;61999;51.514;14.614;2023-12-14T10:23:34;99662.22;;;2.05;100.00
15880;BME280;61999;51.514;14.614;2023-12-14T10:26:04;99660.63;;;2.03;100.00
15880;BME280;61999;51.514;14.614;2023-12-14T10:28:33;99656.78;;;2.10;100.00
15880;BME280;61999;51.514;14.614;2023-12-14T10:31:02;99673.69;;;2.01;100.00
15880;BME280;61999;51.514;14.614;2023-12-14T10:33:32;99676.13;;;1.87;100.00
15880;BME280;61999;51.514;14.614;2023-12-14T10:36:03;99689.75;;;1.73;100.00
15880;BME280;61999;51.514;14.614;2023-12-14T10:38:34;99685.81;;;1.83;100.00
15880;BME280;61999;51.514;14.614;2023-12-14T10:41:09;99693.59;;;1.47;100.00
15880;BME280;61999;51.514;14.614;2023-12-14T10:43:37;99702.84;;;1.71;100.00
15880;BME280;61999;51.514;14.614;2023-12-14T10:46:10;99704.50;;;1.72;100.00
15880;BME280;61999;51.514;14.614;2023-12-14T10:48:39;99715.50;;;1.41;100.00
15880;BME280;61999;51.514;14.614;2023-12-14T10:51:17;99711.69;;;1.67;100.00
15880;BME280;61999;51.514;14.614;2023-12-14T10:53:47;99721.50;;;1.80;100.00
15880;BME280;61999;51.514;14.614;2023-12-14T10:56:17;99721.09;;;1.70;100.00
15880;BME280;61999;51.514;14.614;2023-12-14T10:58:47;99724.78;;;1.83;100.00
15880;BME280;61999;51.514;14.614;2023-12-14T11:01:15;99730.09;;;1.82;100.00
15880;BME280;61999;51.514;14.614;2023-12-14T11:03:44;99726.28;;;1.70;100.00
15880;BME280;61999;51.514;14.614;2023-12-14T11:06:29;99734.56;;;1.78;100.00
15880;BME280;61999;51.514;14.614;2023-12-14T11:09:00;99737.41;;;1.73;100.00
15880;BME280;61999;51.514;14.614;2023-12-14T11:11:41;99740.00;;;1.55;100.00
15880;BME280;61999;51.514;14.614;2023-12-14T11:14:12;99746.91;;;1.18;100.00
15880;BME280;61999;51.514;14.614;2023-12-14T11:16:41;99747.59;;;1.02;100.00
15880;BME280;61999;51.514;14.614;2023-12-14T11:19:30;99742.91;;;1.48;100.00
15880;BME280;61999;51.514;14.614;2023-12-14T11:22:23;99749.75;;;0.93;100.00
15880;BME280;61999;51.514;14.614;2023-12-14T11:24:53;99756.94;;;1.25;100.00
15880;BME280;61999;51.514;14.614;2023-12-14T11:27:27;99756.31;;;1.20;100.00
15880;BME280;61999;51.514;14.614;2023-12-14T11:29:57;99758.13;;;1.37;100.00
15880;BME280;61999;51.514;14.614;2023-12-14T11:32:26;99753.09;;;1.34;100.00
15880;BME280;61999;51.514;14.614;2023-12-14T11:34:55;99764.41;;;1.33;100.00
15880;BME280;61999;51.514;14.614;2023-12-14T11:37:25;99764.94;;;1.21;100.00
15880;BME280;61999;51.514;14.614;2023-12-14T11:39:54;99761.78;;;1.14;100.00
15880;BME280;61999;51.514;14.614;2023-12-14T11:42:22;99767.59;;;1.38;100.00
15880;BME280;61999;51.514;14.614;2023-12-14T11:44:52;99770.69;;;1.46;100.00
15880;BME280;61999;51.514;14.614;2023-12-14T11:47:20;99762.41;;;1.57;100.00
15880;BME280;61999;51.514;14.614;2023-12-14T11:49:48;99783.75;;;1.64;100.00
15880;BME280;61999;51.514;14.614;2023-12-14T11:52:17;99780.84;;;1.70;100.00
15880;BME280;61999;51.514;14.614;2023-12-14T11:54:47;99789.09;;;1.61;100.00
15880;BME280;61999;51.514;14.614;2023-12-14T11:57:16;99790.66;;;1.65;100.00
15880;BME280;61999;51.514;14.614;2023-12-14T11:59:45;99792.13;;;1.70;100.00
15880;BME280;61999;51.514;14.614;2023-12-14T12:02:24;99786.56;;;1.59;100.00
15880;BME280;61999;51.514;14.614;2023-12-14T12:04:53;99795.25;;;1.77;100.00
15880;BME280;61999;51.514;14.614;2023-12-14T12:07:22;99786.53;;;1.78;100.00
15880;BME280;61999;51.514;14.614;2023-12-14T12:09:52;99788.25;;;1.79;100.00
15880;BME280;61999;51.514;14.614;2023-12-14T12:12:21;99803.06;;;1.77;100.00
15880;BME280;61999;51.514;14.614;2023-12-14T12:14:49;99788.50;;;1.73;100.00
15880;BME280;61999;51.514;14.614;2023-12-14T12:17:19;99791.44;;;1.84;100.00
15880;BME280;61999;51.514;14.614;2023-12-14T12:19:47;99789.88;;;1.82;100.00
15880;BME280;61999;51.514;14.614;2023-12-14T12:22:15;99790.91;;;1.78;100.00
15880;BME280;61999;51.514;14.614;2023-12-14T12:24:43;99798.72;;;1.97;100.00
15880;BME280;61999;51.514;14.614;2023-12-14T12:27:13;99799.28;;;1.65;100.00
15880;BME280;61999;51.514;14.614;2023-12-14T12:29:41;99814.22;;;1.79;100.00
15880;BME280;61999;51.514;14.614;2023-12-14T12:32:09;99804.31;;;1.87;100.00
15880;BME280;61999;51.514;14.614;2023-12-14T12:34:37;99807.97;;;1.83;100.00
15880;BME280;61999;51.514;14.614;2023-12-14T12:37:05;99818.56;;;1.79;100.00
15880;BME280;61999;51.514;14.614;2023-12-14T12:39:33;99819.84;;;1.70;100.00
15880;BME280;61999;51.514;14.614;2023-12-14T12:42:01;99823.66;;;1.63;100.00
15880;BME280;61999;51.514;14.614;2023-12-14T12:44:30;99827.03;;;1.65;100.00
15880;BME280;61999;51.514;14.614;2023-12-14T12:46:58;99827.16;;;1.62;100.00
15880;BME280;61999;51.514;14.614;2023-12-14T12:49:27;99826.03;;;1.48;100.00
15880;BME280;61999;51.514;14.614;2023-12-14T12:51:55;99837.69;;;0.80;100.00
15880;BME280;61999;51.514;14.614;2023-12-14T12:54:24;99844.25;;;1.28;100.00
15880;BME280;61999;51.514;14.614;2023-12-14T12:56:52;99852.44;;;0.98;100.00
15880;BME280;61999;51.514;14.614;2023-12-14T12:59:20;99855.44;;;1.10;100.00